sensor_id;sensor_type;location;lat;lon;timestamp;pressure;altitude;pressure_sealevel;temperature;humidity
4858;BME280;58975;51.978;8.472;2022-09-09T00:04:25;99615.00;;;13.45;100.00
4858;BME280;58975;51.978;8.472;2022-09-09T00:09:27;99604.66;;;13.50;100.00
4858;BME280;58975;51.978;8.472;2022-09-09T00:14:42;99597.31;;;13.44;100.00
4858;BME280;58975;51.978;8.472;2022-09-09T00:19:49;99584.59;;;13.46;100.00
4858;BME280;58975;51.978;8.472;2022-09-09T00:24:53;99603.03;;;13.57;100.00
4858;BME280;58975;51.978;8.472;2022-09-09T00:35:15;99600.75;;;13.79;100.00
4858;BME280;58975;51.978;8.472;2022-09-09T00:40:34;99594.38;;;13.71;100.00
4858;BME280;58975;51.978;8.472;2022-09-09T00:45:40;99590.38;;;13.76;100.00
4858;BME280;58975;51.978;8.472;2022-09-09T00:51:13;99579.47;;;13.69;100.00
4858;BME280;58975;51.978;8.472;2022-09-09T00:56:16;99581.66;;;13.65;100.00
4858;BME280;58975;51.978;8.472;2022-09-09T01:01:15;99589.03;;;13.71;100.00
4858;BME280;58975;51.978;8.472;2022-09-09T01:06:20;99586.03;;;13.74;100.00
4858;BME280;58975;51.978;8.472;2022-09-09T01:16:31;99574.63;;;13.72;100.00
4858;BME280;58975;51.978;8.472;2022-09-09T01:21:50;99574.63;;;13.72;100.00
4858;BME280;58975;51.978;8.472;2022-09-09T01:26:54;99572.50;;;13.92;100.00
4858;BME280;58975;51.978;8.472;2022-09-09T01:37:07;99582.56;;;13.90;100.00
4858;BME280;58975;51.978;8.472;2022-09-09T01:42:07;99572.84;;;13.89;100.00
4858;BME280;58975;51.978;8.472;2022-09-09T01:47:05;99577.72;;;13.94;100.00
4858;BME280;58975;51.978;8.472;2022-09-09T01:52:02;99576.72;;;13.95;100.00
4858;BME280;58975;51.978;8.472;2022-09-09T01:57:08;99580.22;;;13.95;100.00
4858;BME280;58975;51.978;8.472;2022-09-09T02:02:09;99576.50;;;13.88;100.00
4858;BME280;58975;51.978;8.472;2022-09-09T02:12:14;99581.66;;;13.73;100.00
4858;BME280;58975;51.978;8.472;2022-09-09T02:17:16;99573.28;;;13.68;100.00
4858;BME280;58975;51.978;8.472;2022-09-09T02:22:20;99583.97;;;13.52;100.00
4858;BME280;58975;51.978;8.472;2022-09-09T02:27:20;99587.97;;;13.48;100.00
4858;BME280;58975;51.978;8.472;2022-09-09T02:32:20;99589.66;;;13.57;100.00
4858;BME280;58975;51.978;8.472;2022-09-09T02:37:20;99589.50;;;13.59;100.00
4858;BME280;58975;51.978;8.472;2022-09-09T02:42:18;99595.34;;;13.62;100.00
4858;BME280;58975;51.978;8.472;2022-09-09T02:52:26;99595.34;;;13.62;100.00
4858;BME280;58975;51.978;8.472;2022-09-09T02:57:28;99599.34;;;13.58;100.00
4858;BME280;58975;51.978;8.472;2022-09-09T03:02:26;99605.38;;;13.52;100.00
4858;BME280;58975;51.978;8.472;2022-09-09T03:07:23;99594.84;;;13.59;100.00
4858;BME280;58975;51.978;8.472;2022-09-09T03:12:20;99600.56;;;13.64;100.00
4858;BME280;58975;51.978;8.472;2022-09-09T03:17:16;99600.72;;;13.62;100.00
4858;BME280;58975;51.978;8.472;2022-09-09T03:22:13;99609.25;;;13.66;100.00
4858;BME280;58975;51.978;8.472;2022-09-09T03:27:09;99598.38;;;13.67;100.00
4858;BME280;58975;51.978;8.472;2022-09-09T03:32:06;99601.41;;;13.72;100.00
4858;BME280;58975;51.978;8.472;2022-09-09T03:37:02;99601.09;;;13.76;100.00
4858;BME280;58975;51.978;8.472;2022-09-09T03:41:59;99597.72;;;13.73;100.00
4858;BME280;58975;51.978;8.472;2022-09-09T03:46:55;99594.06;;;13.74;100.00
4858;BME280;58975;51.978;8.472;2022-09-09T03:51:52;99601.09;;;13.76;100.00
4858;BME280;58975;51.978;8.472;2022-09-09T03:56:48;99586.03;;;13.74;100.00
4858;BME280;58975;51.978;8.472;2022-09-09T04:01:44;99590.03;;;13.70;100.00
4858;BME280;58975;51.978;8.472;2022-09-09T04:06:41;99592.00;;;13.68;100.00
4858;BME280;58975;51.978;8.472;2022-09-09T04:11:38;99600.38;;;13.65;100.00
4858;BME280;58975;51.978;8.472;2022-09-09T04:16:34;99608.44;;;13.73;100.00
4858;BME280;58975;51.978;8.472;2022-09-09T04:21:33;99618.50;;;13.80;100.00
4858;BME280;58975;51.978;8.472;2022-09-09T04:26:29;99626.84;;;13.85;100.00
4858;BME280;58975;51.978;8.472;2022-09-09T04:31:26;99603.63;;;13.93;100.00
4858;BME280;58975;51.978;8.472;2022-09-09T04:36:22;99603.97;;;13.90;100.00
4858;BME280;58975;51.978;8.472;2022-09-09T04:41:19;99614.34;;;13.93;100.00
4858;BME280;58975;51.978;8.472;2022-09-09T04:46:15;99619.19;;;13.90;100.00
4858;BME280;58975;51.978;8.472;2022-09-09T04:51:14;99623.53;;;13.91;100.00
4858;BME280;58975;51.978;8.472;2022-09-09T04:56:16;99628.53;;;13.86;100.00
4858;BME280;58975;51.978;8.472;2022-09-09T05:01:18;99631.91;;;13.88;100.00
4858;BME280;58975;51.978;8.472;2022-09-09T05:06:17;99632.91;;;13.87;100.00
4858;BME280;58975;51.978;8.472;2022-09-09T05:11:21;99635.91;;;13.84;100.00
4858;BME280;58975;51.978;8.472;2022-09-09T05:16:20;99642.91;;;13.85;100.00
4858;BME280;58975;51.978;8.472;2022-09-09T05:21:18;99643.13;;;13.91;100.00
4858;BME280;58975;51.978;8.472;2022-09-09T05:26:18;99645.63;;;13.93;100.00
4858;BME280;58975;51.978;8.472;2022-09-09T05:31:17;99652.16;;;13.98;100.00
4858;BME280;58975;51.978;8.472;2022-09-09T05:36:18;99646.50;;;14.09;100.00
4858;BME280;58975;51.978;8.472;2022-09-09T05:41:16;99651.38;;;14.22;100.00
4858;BME280;58975;51.978;8.472;2022-09-09T05:46:16;99644.72;;;14.34;100.00
4858;BME280;58975;51.978;8.472;2022-09-09T05:51:15;99661.50;;;14.52;100.00
4858;BME280;58975;51.978;8.472;2022-09-09T05:56:17;99657.97;;;14.68;100.00
4858;BME280;58975;51.978;8.472;2022-09-09T06:01:17;99657.50;;;14.81;100.00
4858;BME280;58975;51.978;8.472;2022-09-09T06:06:22;99651.44;;;14.95;100.00
4858;BME280;58975;51.978;8.472;2022-09-09T06:11:24;99643.38;;;15.03;100.00
4858;BME280;58975;51.978;8.472;2022-09-09T06:16:24;99641.69;;;15.10;100.00
4858;BME280;58975;51.978;8.472;2022-09-09T06:21:23;99643.97;;;15.29;100.00
4858;BME280;58975;51.978;8.472;2022-09-09T06:26:20;99629.50;;;15.63;100.00
4858;BME280;58975;51.978;8.472;2022-09-09T06:31:18;99616.41;;;16.21;100.00
4858;BME280;58975;51.978;8.472;2022-09-09T06:36:29;99601.81;;;16.84;100.00
4858;BME280;58975;51.978;8.472;2022-09-09T06:41:28;99586.16;;;16.87;100.00
4858;BME280;58975;51.978;8.472;2022-09-09T06:46:27;99579.00;;;16.80;100.00
4858;BME280;58975;51.978;8.472;2022-09-09T06:51:26;99589.53;;;16.67;100.00
4858;BME280;58975;51.978;8.472;2022-09-09T07:01:23;99601.78;;;16.46;100.00
4858;BME280;58975;51.978;8.472;2022-09-09T07:06:22;99601.22;;;16.51;100.00
4858;BME280;58975;51.978;8.472;2022-09-09T07:11:24;99599.19;;;16.61;100.00
4858;BME280;58975;51.978;8.472;2022-09-09T07:16:23;99607.88;;;16.63;100.00
4858;BME280;58975;51.978;8.472;2022-09-09T07:21:21;99606.97;;;16.71;100.00
4858;BME280;58975;51.978;8.472;2022-09-09T07:26:20;99612.09;;;16.80;100.00
4858;BME280;58975;51.978;8.472;2022-09-09T07:31:19;99615.19;;;16.92;100.00
4858;BME280;58975;51.978;8.472;2022-09-09T07:36:22;99608.88;;;16.99;100.00
4858;BME280;58975;51.978;8.472;2022-09-09T07:41:28;99605.19;;;17.15;100.00
4858;BME280;58975;51.978;8.472;2022-09-09T07:46:26;99607.31;;;17.34;100.00
4858;BME280;58975;51.978;8.472;2022-09-09T07:51:25;99608.91;;;17.43;100.00
4858;BME280;58975;51.978;8.472;2022-09-09T07:56:23;99604.28;;;17.67;100.00
4858;BME280;58975;51.978;8.472;2022-09-09T08:01:25;99610.38;;;17.90;100.00
4858;BME280;58975;51.978;8.472;2022-09-09T08:06:21;99610.66;;;18.16;100.00
4858;BME280;58975;51.978;8.472;2022-09-09T08:11:18;99608.72;;;18.31;100.00
4858;BME280;58975;51.978;8.472;2022-09-09T08:16:20;99604.75;;;18.49;100.00
4858;BME280;58975;51.978;8.472;2022-09-09T08:21:20;99609.78;;;19.28;100.00
4858;BME280;58975;51.978;8.472;2022-09-09T08:26:19;99620.44;;;19.36;100.00
4858;BME280;58975;51.978;8.472;2022-09-09T08:31:21;99628.97;;;19.40;100.00
4858;BME280;58975;51.978;8.472;2022-09-09T08:36:24;99638.09;;;19.73;100.00
4858;BME280;58975;51.978;8.472;2022-09-09T08:41:37;99644.06;;;20.03;100.00
4858;BME280;58975;51.978;8.472;2022-09-09T08:46:44;99647.69;;;19.82;100.00
4858;BME280;58975;51.978;8.472;2022-09-09T08:51:43;99656.72;;;19.62;100.00
4858;BME280;58975;51.978;8.472;2022-09-09T08:56:39;99651.09;;;19.29;100.00
4858;BME280;58975;51.978;8.472;2022-09-09T09:12:47;99669.00;;;18.60;100.00
4858;BME280;58975;51.978;8.472;2022-09-09T09:17:43;99660.84;;;18.17;100.00
4858;BME280;58975;51.978;8.472;2022-09-09T09:22:51;99667.19;;;18.31;100.00
4858;BME280;58975;51.978;8.472;2022-09-09T09:28:03;99660.66;;;18.19;100.00
4858;BME280;58975;51.978;8.472;2022-09-09T09:38:25;99655.72;;;18.86;100.00
4858;BME280;58975;51.978;8.472;2022-09-09T09:43:41;99639.34;;;19.71;100.00
4858;BME280;58975;51.978;8.472;2022-09-09T09:48:40;99645.16;;;20.22;100.00
4858;BME280;58975;51.978;8.472;2022-09-09T09:53:38;99645.94;;;20.09;100.00
4858;BME280;58975;51.978;8.472;2022-09-09T10:03:51;99668.16;;;20.11;100.00
4858;BME280;58975;51.978;8.472;2022-09-09T10:08:47;99678.28;;;20.37;100.00
4858;BME280;58975;51.978;8.472;2022-09-09T10:24:21;99664.06;;;19.68;100.00
4858;BME280;58975;51.978;8.472;2022-09-09T10:34:58;99666.22;;;20.33;100.00
4858;BME280;58975;51.978;8.472;2022-09-09T10:45:34;99657.44;;;20.31;100.00
4858;BME280;58975;51.978;8.472;2022-09-09T10:50:48;99650.25;;;19.97;100.00
4858;BME280;58975;51.978;8.472;2022-09-09T10:56:06;99651.94;;;20.85;100.00
4858;BME280;58975;51.978;8.472;2022-09-09T11:01:12;99644.66;;;20.66;100.00
4858;BME280;58975;51.978;8.472;2022-09-09T11:06:19;99647.78;;;20.02;100.00
4858;BME280;58975;51.978;8.472;2022-09-09T11:11:27;99644.78;;;20.32;100.00
4858;BME280;58975;51.978;8.472;2022-09-09T11:21:36;99645.69;;;21.04;100.00
4858;BME280;58975;51.978;8.472;2022-09-09T11:26:38;99648.78;;;20.75;100.00
4858;BME280;58975;51.978;8.472;2022-09-09T11:31:46;99634.69;;;20.06;100.00
4858;BME280;58975;51.978;8.472;2022-09-09T11:37:02;99635.50;;;20.80;100.00
4858;BME280;58975;51.978;8.472;2022-09-09T11:42:15;99639.50;;;20.23;100.00
4858;BME280;58975;51.978;8.472;2022-09-09T11:47:31;99649.03;;;20.80;100.00
4858;BME280;58975;51.978;8.472;2022-09-09T11:52:39;99648.69;;;20.22;100.00
4858;BME280;58975;51.978;8.472;2022-09-09T11:57:38;99650.50;;;21.22;100.00
4858;BME280;58975;51.978;8.472;2022-09-09T12:02:35;99640.81;;;21.65;100.00
4858;BME280;58975;51.978;8.472;2022-09-09T12:07:36;99634.72;;;22.28;100.00
4858;BME280;58975;51.978;8.472;2022-09-09T12:12:37;99633.75;;;22.22;100.00
4858;BME280;58975;51.978;8.472;2022-09-09T12:17:47;99634.16;;;21.61;100.00
4858;BME280;58975;51.978;8.472;2022-09-09T12:28:18;99638.38;;;22.08;100.00
4858;BME280;58975;51.978;8.472;2022-09-09T12:33:17;99627.53;;;22.46;100.00
4858;BME280;58975;51.978;8.472;2022-09-09T12:38:32;99624.06;;;22.64;100.00
4858;BME280;58975;51.978;8.472;2022-09-09T12:43:30;99619.47;;;22.33;100.00
4858;BME280;58975;51.978;8.472;2022-09-09T12:48:34;99616.25;;;22.11;100.00
4858;BME280;58975;51.978;8.472;2022-09-09T12:53:36;99621.53;;;22.00;100.00
4858;BME280;58975;51.978;8.472;2022-09-09T12:58:33;99607.69;;;21.57;100.00
4858;BME280;58975;51.978;8.472;2022-09-09T13:03:32;99616.66;;;21.57;100.00
4858;BME280;58975;51.978;8.472;2022-09-09T13:08:29;99622.94;;;21.45;100.00
4858;BME280;58975;51.978;8.472;2022-09-09T13:13:27;99616.97;;;21.23;100.00
4858;BME280;58975;51.978;8.472;2022-09-09T13:18:29;99620.06;;;20.87;100.00
4858;BME280;58975;51.978;8.472;2022-09-09T13:23:29;99622.59;;;20.69;100.00
4858;BME280;58975;51.978;8.472;2022-09-09T13:28:28;99619.19;;;21.46;100.00
4858;BME280;58975;51.978;8.472;2022-09-09T13:33:35;99619.06;;;21.85;87.25
4858;BME280;58975;51.978;8.472;2022-09-09T13:38:52;99608.69;;;21.76;85.87
4858;BME280;58975;51.978;8.472;2022-09-09T13:43:50;99599.56;;;22.14;88.66
4858;BME280;58975;51.978;8.472;2022-09-09T13:48:58;99597.59;;;22.28;89.88
4858;BME280;58975;51.978;8.472;2022-09-09T13:53:54;99597.34;;;21.98;88.31
4858;BME280;58975;51.978;8.472;2022-09-09T13:58:50;99593.66;;;21.80;95.76
4858;BME280;58975;51.978;8.472;2022-09-09T14:03:47;99587.09;;;21.56;93.17
4858;BME280;58975;51.978;8.472;2022-09-09T14:08:43;99588.97;;;21.49;97.56
4858;BME280;58975;51.978;8.472;2022-09-09T14:13:41;99586.41;;;22.11;91.70
4858;BME280;58975;51.978;8.472;2022-09-09T14:18:38;99594.03;;;21.90;92.97
4858;BME280;58975;51.978;8.472;2022-09-09T14:23:35;99589.69;;;21.82;100.00
4858;BME280;58975;51.978;8.472;2022-09-09T14:28:31;99592.28;;;21.64;98.67
4858;BME280;58975;51.978;8.472;2022-09-09T14:33:49;99580.66;;;22.01;96.23
4858;BME280;58975;51.978;8.472;2022-09-09T14:38:47;99592.13;;;21.39;89.50
4858;BME280;58975;51.978;8.472;2022-09-09T14:43:45;99596.34;;;21.15;96.16
4858;BME280;58975;51.978;8.472;2022-09-09T14:48:42;99599.25;;;20.88;94.25
4858;BME280;58975;51.978;8.472;2022-09-09T14:53:40;99589.91;;;20.57;100.00
4858;BME280;58975;51.978;8.472;2022-09-09T14:58:37;99590.94;;;20.56;100.00
4858;BME280;58975;51.978;8.472;2022-09-09T15:03:40;99578.44;;;21.08;100.00
4858;BME280;58975;51.978;8.472;2022-09-09T15:08:39;99594.28;;;21.82;100.00
4858;BME280;58975;51.978;8.472;2022-09-09T15:13:39;99596.34;;;21.09;100.00
4858;BME280;58975;51.978;8.472;2022-09-09T15:18:36;99601.75;;;20.50;100.00
4858;BME280;58975;51.978;8.472;2022-09-09T15:23:33;99591.34;;;20.34;100.00
4858;BME280;58975;51.978;8.472;2022-09-09T15:28:31;99595.19;;;20.11;100.00
4858;BME280;58975;51.978;8.472;2022-09-09T15:33:28;99595.84;;;20.13;100.00
4858;BME280;58975;51.978;8.472;2022-09-09T15:38:25;99589.94;;;19.90;100.00
4858;BME280;58975;51.978;8.472;2022-09-09T15:43:21;99585.47;;;19.56;100.00
4858;BME280;58975;51.978;8.472;2022-09-09T15:48:18;99578.50;;;19.41;100.00
4858;BME280;58975;51.978;8.472;2022-09-09T15:53:14;99586.06;;;19.24;100.00
4858;BME280;58975;51.978;8.472;2022-09-09T15:58:10;99578.75;;;19.18;100.00
4858;BME280;58975;51.978;8.472;2022-09-09T16:03:08;99578.31;;;19.14;100.00
4858;BME280;58975;51.978;8.472;2022-09-09T16:08:04;99577.56;;;19.27;100.00
4858;BME280;58975;51.978;8.472;2022-09-09T16:13:00;99581.97;;;19.34;100.00
4858;BME280;58975;51.978;8.472;2022-09-09T16:17:58;99594.84;;;19.67;100.00
4858;BME280;58975;51.978;8.472;2022-09-09T16:22:54;99591.69;;;20.17;100.00
4858;BME280;58975;51.978;8.472;2022-09-09T16:27:53;99578.31;;;19.96;100.00
4858;BME280;58975;51.978;8.472;2022-09-09T16:32:49;99588.59;;;19.66;100.00
4858;BME280;58975;51.978;8.472;2022-09-09T16:37:45;99586.06;;;19.52;100.00
4858;BME280;58975;51.978;8.472;2022-09-09T16:42:42;99599.75;;;19.50;100.00
4858;BME280;58975;51.978;8.472;2022-09-09T16:47:38;99616.38;;;19.54;100.00
4858;BME280;58975;51.978;8.472;2022-09-09T16:52:34;99630.44;;;19.43;100.00
4858;BME280;58975;51.978;8.472;2022-09-09T16:57:31;99634.06;;;19.28;100.00
4858;BME280;58975;51.978;8.472;2022-09-09T17:02:27;99654.84;;;19.00;100.00
4858;BME280;58975;51.978;8.472;2022-09-09T17:07:25;99650.31;;;18.58;100.00
4858;BME280;58975;51.978;8.472;2022-09-09T17:12:21;99652.44;;;17.76;100.00
4858;BME280;58975;51.978;8.472;2022-09-09T17:17:18;99642.97;;;17.36;100.00
4858;BME280;58975;51.978;8.472;2022-09-09T17:22:27;99626.72;;;17.15;100.00
4858;BME280;58975;51.978;8.472;2022-09-09T17:27:24;99629.56;;;16.99;100.00
4858;BME280;58975;51.978;8.472;2022-09-09T17:32:21;99630.53;;;16.69;100.00
4858;BME280;58975;51.978;8.472;2022-09-09T17:37:17;99645.44;;;16.48;100.00
4858;BME280;58975;51.978;8.472;2022-09-09T17:42:13;99637.19;;;16.27;100.00
4858;BME280;58975;51.978;8.472;2022-09-09T17:47:10;99643.16;;;16.37;100.00
4858;BME280;58975;51.978;8.472;2022-09-09T17:52:07;99634.56;;;16.42;100.00
4858;BME280;58975;51.978;8.472;2022-09-09T17:57:03;99649.56;;;16.36;100.00
4858;BME280;58975;51.978;8.472;2022-09-09T18:02:00;99649.59;;;16.28;100.00
4858;BME280;58975;51.978;8.472;2022-09-09T18:06:57;99643.16;;;16.37;100.00
4858;BME280;58975;51.978;8.472;2022-09-09T18:11:56;99651.13;;;16.31;100.00
4858;BME280;58975;51.978;8.472;2022-09-09T18:16:53;99655.34;;;16.25;100.00
4858;BME280;58975;51.978;8.472;2022-09-09T18:21:50;99656.03;;;16.19;100.00
4858;BME280;58975;51.978;8.472;2022-09-09T18:26:47;99660.75;;;16.17;100.00
4858;BME280;58975;51.978;8.472;2022-09-09T18:31:45;99666.53;;;16.06;100.00
4858;BME280;58975;51.978;8.472;2022-09-09T18:36:45;99669.59;;;16.03;100.00
4858;BME280;58975;51.978;8.472;2022-09-09T18:41:44;99667.22;;;16.00;100.00
4858;BME280;58975;51.978;8.472;2022-09-09T18:46:42;99665.28;;;15.86;100.00
4858;BME280;58975;51.978;8.472;2022-09-09T18:51:40;99665.16;;;15.79;100.00
4858;BME280;58975;51.978;8.472;2022-09-09T18:56:38;99672.06;;;15.74;100.00
4858;BME280;58975;51.978;8.472;2022-09-09T19:01:34;99684.50;;;15.67;100.00
4858;BME280;58975;51.978;8.472;2022-09-09T19:06:33;99688.22;;;15.57;100.00
4858;BME280;58975;51.978;8.472;2022-09-09T19:11:29;99679.19;;;15.50;100.00
4858;BME280;58975;51.978;8.472;2022-09-09T19:16:29;99686.88;;;15.37;100.00
4858;BME280;58975;51.978;8.472;2022-09-09T19:21:28;99674.66;;;15.35;100.00
4858;BME280;58975;51.978;8.472;2022-09-09T19:26:26;99682.00;;;15.41;100.00
4858;BME280;58975;51.978;8.472;2022-09-09T19:31:23;99687.91;;;15.44;100.00
4858;BME280;58975;51.978;8.472;2022-09-09T19:36:24;99678.31;;;15.42;100.00
4858;BME280;58975;51.978;8.472;2022-09-09T19:41:25;99698.81;;;15.35;100.00
4858;BME280;58975;51.978;8.472;2022-09-09T19:46:22;99698.97;;;15.33;100.00
4858;BME280;58975;51.978;8.472;2022-09-09T19:51:20;99688.94;;;15.19;100.00
4858;BME280;58975;51.978;8.472;2022-09-09T19:56:19;99696.16;;;15.10;100.00
4858;BME280;58975;51.978;8.472;2022-09-09T20:01:21;99710.75;;;15.00;100.00
4858;BME280;58975;51.978;8.472;2022-09-09T20:06:20;99714.78;;;14.96;100.00
4858;BME280;58975;51.978;8.472;2022-09-09T20:11:17;99719.63;;;14.92;100.00
4858;BME280;58975;51.978;8.472;2022-09-09T20:16:21;99723.81;;;14.87;100.00
4858;BME280;58975;51.978;8.472;2022-09-09T20:21:20;99727.50;;;14.94;100.00
4858;BME280;58975;51.978;8.472;2022-09-09T20:26:20;99726.00;;;14.99;100.00
4858;BME280;58975;51.978;8.472;2022-09-09T20:31:19;99720.78;;;14.98;100.00
4858;BME280;58975;51.978;8.472;2022-09-09T20:36:22;99722.13;;;14.94;100.00
4858;BME280;58975;51.978;8.472;2022-09-09T20:41:21;99720.13;;;14.96;100.00
4858;BME280;58975;51.978;8.472;2022-09-09T20:46:19;99728.53;;;15.01;100.00
4858;BME280;58975;51.978;8.472;2022-09-09T20:51:17;99724.31;;;14.98;100.00
4858;BME280;58975;51.978;8.472;2022-09-09T20:56:15;99730.03;;;14.87;100.00
4858;BME280;58975;51.978;8.472;2022-09-09T21:01:14;99718.78;;;14.76;100.00
4858;BME280;58975;51.978;8.472;2022-09-09T21:06:12;99726.81;;;14.67;100.00
4858;BME280;58975;51.978;8.472;2022-09-09T21:11:10;99721.28;;;14.61;100.00
4858;BME280;58975;51.978;8.472;2022-09-09T21:16:09;99724.97;;;14.60;100.00
4858;BME280;58975;51.978;8.472;2022-09-09T21:21:06;99736.19;;;14.63;100.00
4858;BME280;58975;51.978;8.472;2022-09-09T21:26:03;99728.34;;;14.70;100.00
4858;BME280;58975;51.978;8.472;2022-09-09T21:31:00;99730.69;;;14.73;100.00
4858;BME280;58975;51.978;8.472;2022-09-09T21:36:05;99735.22;;;14.73;100.00
4858;BME280;58975;51.978;8.472;2022-09-09T21:41:07;99734.53;;;14.71;100.00
4858;BME280;58975;51.978;8.472;2022-09-09T21:46:08;99744.25;;;14.72;100.00
4858;BME280;58975;51.978;8.472;2022-09-09T21:51:08;99738.38;;;14.60;100.00
4858;BME280;58975;51.978;8.472;2022-09-09T21:56:08;99736.53;;;14.60;100.00
4858;BME280;58975;51.978;8.472;2022-09-09T22:01:14;99732.84;;;14.53;100.00
4858;BME280;58975;51.978;8.472;2022-09-09T22:06:14;99736.66;;;14.51;100.00
4858;BME280;58975;51.978;8.472;2022-09-09T22:11:19;99732.16;;;14.51;100.00
4858;BME280;58975;51.978;8.472;2022-09-09T22:16:19;99736.84;;;14.41;100.00
4858;BME280;58975;51.978;8.472;2022-09-09T22:21:16;99745.03;;;14.40;100.00
4858;BME280;58975;51.978;8.472;2022-09-09T22:26:13;99738.34;;;14.44;100.00
4858;BME280;58975;51.978;8.472;2022-09-09T22:31:10;99741.84;;;14.44;100.00
4858;BME280;58975;51.978;8.472;2022-09-09T22:36:07;99755.41;;;14.51;100.00
4858;BME280;58975;51.978;8.472;2022-09-09T22:41:04;99747.91;;;14.46;100.00
4858;BME280;58975;51.978;8.472;2022-09-09T22:46:01;99762.09;;;14.47;100.00
4858;BME280;58975;51.978;8.472;2022-09-09T22:51:03;99769.97;;;14.40;100.00
4858;BME280;58975;51.978;8.472;2022-09-09T22:56:01;99771.28;;;14.36;100.00
4858;BME280;58975;51.978;8.472;2022-09-09T23:00:59;99773.91;;;14.28;100.00
4858;BME280;58975;51.978;8.472;2022-09-09T23:05:57;99769.22;;;14.22;100.00
4858;BME280;58975;51.978;8.472;2022-09-09T23:10:54;99770.91;;;14.23;100.00
4858;BME280;58975;51.978;8.472;2022-09-09T23:15:50;99772.56;;;14.24;100.00
4858;BME280;58975;51.978;8.472;2022-09-09T23:20:56;99767.53;;;14.21;100.00
4858;BME280;58975;51.978;8.472;2022-09-09T23:26:00;99769.34;;;14.12;100.00
4858;BME280;58975;51.978;8.472;2022-09-09T23:30:58;99772.81;;;14.05;100.00
4858;BME280;58975;51.978;8.472;2022-09-09T23:35:58;99771.00;;;14.05;100.00
4858;BME280;58975;51.978;8.472;2022-09-09T23:40:55;99777.56;;;14.11;100.00
4858;BME280;58975;51.978;8.472;2022-09-09T23:45:52;99765.25;;;14.00;100.00
4858;BME280;58975;51.978;8.472;2022-09-09T23:50:48;99761.03;;;13.90;100.00
4858;BME280;58975;51.978;8.472;2022-09-09T23:55:45;99768.69;;;13.85;100.00
